PWSweather.com
Personal Weather Stations
Station Observations
KMAMEDFI2
Medfield, MA 02052

Medfield, MA 02052

Lat: 42.1900822, Lon: -71.3296889

Elevation: 138

Station Type: Rainwise WS MK-III

http://www.medfieldweather.com

Latest ConditionsUpdated 6:20:00 PM EDT Thursday, Jul 18, 2019
Currently Today's Max Today's Min Today's Average
Temperature 66.1°F18.9°C 73.2°F22.9°C 64.3°F17.9°C 69.1°F20.6°C
Dew Point 63.1°F17.3°C 71.9°F22.2°C 63.1°F17.3°C 67.3°F19.6°C
Winds 2.3 mph E3.7 kmh E 4.6 mph -7.4 kmh - - 1.5 mph 2.4 kmh
Wind Gusts 2.3 mph3.7 kmh 8.1 mph13.0 kmh - -
Humidity 90% 99% 76% 94%
Pressure 29.94 in1013.9 mb 29.99 in1015.6 mb 29.85 in1010.8 mb -
Precipitation - 0.04 in1.0 mm - -
Hour Temp Dew Point Humidity Winds Wind Gusts Pressure Precip Precip Rate Daily Precip Total
06:20 PM 66.1°F18.9°C 63.1°F17.3°C 90% 2.3 mph E3.7 kmh E 2.3 mph3.7 kmh 29.94 in1013.9 mb - 0.00 in0.0 mm 0.04 in1.0 mm
05:50 PM 67.8°F19.9°C 63.8°F17.7°C 87% 2.3 mph E3.7 kmh E 2.3 mph3.7 kmh 29.95 in1014.2 mb - 0.00 in0.0 mm 0.04 in1.0 mm
05:40 PM 68.4°F20.2°C 64.1°F17.8°C 86% 2.3 mph E3.7 kmh E 2.3 mph3.7 kmh 29.95 in1014.2 mb - 0.00 in0.0 mm 0.04 in1.0 mm
05:30 PM 68.8°F20.4°C 63.7°F17.6°C 84% 3.5 mph E5.6 kmh E 5.8 mph9.3 kmh 29.95 in1014.2 mb - 0.00 in0.0 mm 0.04 in1.0 mm
05:20 PM 69.1°F20.6°C 64.1°F17.8°C 84% 2.3 mph E3.7 kmh E 2.3 mph3.7 kmh 29.95 in1014.2 mb - 0.00 in0.0 mm 0.04 in1.0 mm
05:10 PM 69.8°F21.0°C 64.1°F17.8°C 82% 2.3 mph NW3.7 kmh NW 8.1 mph13.0 kmh 29.94 in1013.9 mb - 0.00 in0.0 mm 0.04 in1.0 mm
05:00 PM 70.7°F21.5°C 65.3°F18.5°C 83% 1.2 mph NNW1.9 kmh NNW 2.3 mph3.7 kmh 29.95 in1014.2 mb - 0.00 in0.0 mm 0.04 in1.0 mm
04:50 PM 71.8°F22.1°C 65.3°F18.5°C 80% 2.3 mph WSW3.7 kmh WSW 5.8 mph9.3 kmh 29.95 in1014.2 mb - 0.00 in0.0 mm 0.04 in1.0 mm
04:40 PM 73.2°F22.9°C 65.2°F18.4°C 76% 3.5 mph ESE5.6 kmh ESE 3.5 mph5.6 kmh 29.94 in1013.9 mb - 0.00 in0.0 mm 0.04 in1.0 mm
04:30 PM 72.9°F22.7°C 67.1°F19.5°C 82% 3.5 mph NNE5.6 kmh NNE 5.8 mph9.3 kmh 29.94 in1013.9 mb - 0.00 in0.0 mm 0.04 in1.0 mm
04:20 PM 72.5°F22.5°C 65.6°F18.7°C 79% 2.3 mph E3.7 kmh E 2.3 mph3.7 kmh 29.94 in1013.9 mb - 0.00 in0.0 mm 0.04 in1.0 mm
04:10 PM 72.5°F22.5°C 65.3°F18.5°C 78% 3.5 mph E5.6 kmh E 2.3 mph3.7 kmh 29.94 in1013.9 mb - 0.00 in0.0 mm 0.04 in1.0 mm
04:00 PM 72.2°F22.3°C 65.7°F18.7°C 80% 2.3 mph W3.7 kmh W 2.3 mph3.7 kmh 29.94 in1013.9 mb - 0.00 in0.0 mm 0.04 in1.0 mm
03:50 PM 70.4°F21.3°C 64.3°F17.9°C 81% 2.3 mph NE3.7 kmh NE 3.5 mph5.6 kmh 29.93 in1013.5 mb - 0.00 in0.0 mm 0.04 in1.0 mm
03:40 PM 69.2°F20.7°C 64.5°F18.1°C 85% 2.3 mph E3.7 kmh E 3.5 mph5.6 kmh 29.94 in1013.9 mb - 0.00 in0.0 mm 0.04 in1.0 mm
03:30 PM 68.8°F20.4°C 64.5°F18.1°C 86% Calm Calm 2.3 mph3.7 kmh 29.95 in1014.2 mb - 0.00 in0.0 mm 0.04 in1.0 mm
03:20 PM 68.9°F20.5°C 64.6°F18.1°C 86% 2.3 mph ENE3.7 kmh ENE 2.3 mph3.7 kmh 29.95 in1014.2 mb - 0.00 in0.0 mm 0.04 in1.0 mm
03:10 PM 68.1°F20.1°C 63.4°F17.4°C 85% 2.3 mph E3.7 kmh E 2.3 mph3.7 kmh 29.95 in1014.2 mb - 0.00 in0.0 mm 0.04 in1.0 mm
03:00 PM 68.2°F20.1°C 63.9°F17.7°C 86% 2.3 mph E3.7 kmh E 5.8 mph9.3 kmh 29.96 in1014.6 mb - 0.00 in0.0 mm 0.04 in1.0 mm
02:50 PM 68.1°F20.1°C 63.1°F17.3°C 84% 2.3 mph NE3.7 kmh NE 2.3 mph3.7 kmh 29.97 in1014.9 mb - 0.00 in0.0 mm 0.04 in1.0 mm
02:40 PM 67.9°F19.9°C 63.6°F17.6°C 86% 1.2 mph SE1.9 kmh SE 2.3 mph3.7 kmh 29.97 in1014.9 mb - 0.00 in0.0 mm 0.04 in1.0 mm
02:30 PM 67.7°F19.8°C 63.3°F17.4°C 86% 2.3 mph NE3.7 kmh NE 2.3 mph3.7 kmh 29.97 in1014.9 mb - 0.00 in0.0 mm 0.04 in1.0 mm
02:20 PM 68.1°F20.1°C 64.1°F17.8°C 87% 2.3 mph E3.7 kmh E 5.8 mph9.3 kmh 29.97 in1014.9 mb - 0.00 in0.0 mm 0.04 in1.0 mm
02:10 PM 67.9°F19.9°C 64.3°F17.9°C 88% 2.3 mph E3.7 kmh E 2.3 mph3.7 kmh 29.98 in1015.2 mb - 0.00 in0.0 mm 0.04 in1.0 mm
02:00 PM 68.3°F20.2°C 64.0°F17.8°C 86% 2.3 mph N3.7 kmh N 2.3 mph3.7 kmh 29.97 in1014.9 mb - 0.00 in0.0 mm 0.04 in1.0 mm
01:50 PM 69.1°F20.6°C 64.1°F17.8°C 84% 4.6 mph E7.4 kmh E 3.5 mph5.6 kmh 29.97 in1014.9 mb - 0.00 in0.0 mm 0.04 in1.0 mm
01:40 PM 68.7°F20.4°C 64.4°F18.0°C 86% 2.3 mph E3.7 kmh E 2.3 mph3.7 kmh 29.97 in1014.9 mb - 0.00 in0.0 mm 0.04 in1.0 mm
01:30 PM 68.5°F20.3°C 64.8°F18.2°C 88% 1.2 mph E1.9 kmh E 5.8 mph9.3 kmh 29.97 in1014.9 mb - 0.00 in0.0 mm 0.04 in1.0 mm
01:20 PM 68.4°F20.2°C 64.1°F17.8°C 86% 3.5 mph ESE5.6 kmh ESE 2.3 mph3.7 kmh 29.97 in1014.9 mb - 0.00 in0.0 mm 0.04 in1.0 mm
01:10 PM 67.6°F19.8°C 64.9°F18.3°C 91% 1.2 mph E1.9 kmh E 2.3 mph3.7 kmh 29.97 in1014.9 mb - 0.00 in0.0 mm 0.04 in1.0 mm
01:00 PM 66.7°F19.3°C 63.7°F17.6°C 90% 3.5 mph ESE5.6 kmh ESE 3.5 mph5.6 kmh 29.97 in1014.9 mb - 0.00 in0.0 mm 0.04 in1.0 mm
12:50 PM 66.6°F19.2°C 63.9°F17.7°C 91% 1.2 mph SE1.9 kmh SE 2.3 mph3.7 kmh 29.98 in1015.2 mb - 0.00 in0.0 mm 0.04 in1.0 mm
12:40 PM 66.6°F19.2°C 63.6°F17.6°C 90% 2.3 mph NW3.7 kmh NW 2.3 mph3.7 kmh 29.99 in1015.6 mb - 0.00 in0.0 mm 0.04 in1.0 mm
12:30 PM 66.7°F19.3°C 63.7°F17.6°C 90% 2.3 mph E3.7 kmh E 2.3 mph3.7 kmh 29.99 in1015.6 mb - 0.00 in0.0 mm 0.04 in1.0 mm
12:20 PM 67.0°F19.4°C 64.3°F17.9°C 91% 4.6 mph E7.4 kmh E 6.9 mph11.1 kmh 29.98 in1015.2 mb - 0.00 in0.0 mm 0.04 in1.0 mm
12:10 PM 66.7°F19.3°C 65.9°F18.8°C 97% 2.3 mph E3.7 kmh E 2.3 mph3.7 kmh 29.98 in1015.2 mb - 0.00 in0.0 mm 0.04 in1.0 mm
12:00 PM 66.1°F18.9°C 65.8°F18.8°C 99% 2.3 mph E3.7 kmh E 2.3 mph3.7 kmh 29.98 in1015.2 mb - 0.00 in0.0 mm 0.04 in1.0 mm
11:50 AM 65.5°F18.6°C 64.9°F18.3°C 98% 1.2 mph SSW1.9 kmh SSW 3.5 mph5.6 kmh 29.98 in1015.2 mb - 0.00 in0.0 mm 0.04 in1.0 mm
11:40 AM 64.9°F18.3°C 64.4°F18.0°C 98% 4.6 mph E7.4 kmh E 2.3 mph3.7 kmh 29.98 in1015.2 mb - 0.00 in0.0 mm 0.04 in1.0 mm
11:30 AM 64.9°F18.3°C 64.3°F17.9°C 98% 3.5 mph E5.6 kmh E 6.9 mph11.1 kmh 29.98 in1015.2 mb - 0.00 in0.0 mm 0.04 in1.0 mm
11:20 AM 65.2°F18.4°C 64.6°F18.1°C 98% 3.5 mph ENE5.6 kmh ENE 5.8 mph9.3 kmh 29.97 in1014.9 mb - 0.00 in0.0 mm 0.04 in1.0 mm
11:10 AM 65.9°F18.8°C 65.3°F18.5°C 98% 2.3 mph ESE3.7 kmh ESE 3.5 mph5.6 kmh 29.97 in1014.9 mb - 0.00 in0.0 mm 0.04 in1.0 mm
11:00 AM 65.7°F18.7°C 65.1°F18.4°C 98% 2.3 mph SE3.7 kmh SE 3.5 mph5.6 kmh 29.96 in1014.6 mb - 0.00 in0.0 mm 0.04 in1.0 mm
10:50 AM 65.6°F18.7°C 65.0°F18.3°C 98% 3.5 mph N5.6 kmh N 5.8 mph9.3 kmh 29.96 in1014.6 mb - 0.00 in0.0 mm 0.04 in1.0 mm
10:40 AM 65.2°F18.4°C 64.6°F18.1°C 98% 3.5 mph SE5.6 kmh SE 5.8 mph9.3 kmh 29.96 in1014.6 mb - 0.00 in0.0 mm 0.04 in1.0 mm
10:30 AM 65.3°F18.5°C 64.7°F18.2°C 98% 2.3 mph E3.7 kmh E 2.3 mph3.7 kmh 29.97 in1014.9 mb - 0.01 in0.3 mm 0.04 in1.0 mm
10:20 AM 64.9°F18.3°C 64.3°F17.9°C 98% 2.3 mph WNW3.7 kmh WNW 2.3 mph3.7 kmh 29.96 in1014.6 mb - 0.02 in0.5 mm 0.04 in1.0 mm
10:10 AM 64.5°F18.1°C 64.0°F17.8°C 98% 2.3 mph ESE3.7 kmh ESE 3.5 mph5.6 kmh 29.96 in1014.6 mb - 0.03 in0.8 mm 0.04 in1.0 mm
10:00 AM 64.6°F18.1°C 64.1°F17.8°C 98% 3.5 mph E5.6 kmh E 3.5 mph5.6 kmh 29.96 in1014.6 mb - 0.03 in0.8 mm 0.04 in1.0 mm
09:50 AM 64.5°F18.1°C 63.9°F17.7°C 98% 2.3 mph SSE3.7 kmh SSE 2.3 mph3.7 kmh 29.96 in1014.6 mb - 0.03 in0.8 mm 0.04 in1.0 mm
09:40 AM 64.3°F17.9°C 63.7°F17.6°C 98% 2.3 mph NNE3.7 kmh NNE 5.8 mph9.3 kmh 29.97 in1014.9 mb - 0.03 in0.8 mm 0.04 in1.0 mm
09:30 AM 64.4°F18.0°C 63.8°F17.7°C 98% 3.5 mph SE5.6 kmh SE 2.3 mph3.7 kmh 29.97 in1014.9 mb - 0.02 in0.5 mm 0.03 in0.8 mm
09:20 AM 64.8°F18.2°C 64.2°F17.9°C 98% 1.2 mph ESE1.9 kmh ESE 6.9 mph11.1 kmh 29.97 in1014.9 mb - 0.01 in0.3 mm 0.02 in0.5 mm
09:10 AM 65.6°F18.7°C 65.1°F18.4°C 98% 3.5 mph ESE5.6 kmh ESE 6.9 mph11.1 kmh 29.97 in1014.9 mb - 0.00 in0.0 mm 0.01 in0.3 mm
09:00 AM 66.8°F19.3°C 66.5°F19.2°C 99% 4.6 mph E7.4 kmh E 6.9 mph11.1 kmh 29.97 in1014.9 mb - 0.00 in0.0 mm 0.01 in0.3 mm
08:50 AM 68.2°F20.1°C 67.9°F19.9°C 99% Calm Calm 2.3 mph3.7 kmh 29.96 in1014.6 mb - 0.00 in0.0 mm 0.01 in0.3 mm
08:40 AM 68.3°F20.2°C 68.0°F20.0°C 99% 2.3 mph S3.7 kmh S 2.3 mph3.7 kmh 29.95 in1014.2 mb - 0.00 in0.0 mm 0.01 in0.3 mm
08:30 AM 68.3°F20.2°C 68.0°F20.0°C 99% 2.3 mph S3.7 kmh S 2.3 mph3.7 kmh 29.95 in1014.2 mb - 0.00 in0.0 mm 0.01 in0.3 mm
08:20 AM 68.5°F20.3°C 68.2°F20.1°C 99% 3.5 mph NE5.6 kmh NE 5.8 mph9.3 kmh 29.95 in1014.2 mb - 0.00 in0.0 mm 0.01 in0.3 mm
08:10 AM 68.7°F20.4°C 68.4°F20.2°C 99% 2.3 mph ENE3.7 kmh ENE 2.3 mph3.7 kmh 29.95 in1014.2 mb - 0.00 in0.0 mm 0.01 in0.3 mm
08:00 AM 68.8°F20.4°C 68.5°F20.3°C 99% 1.2 mph E1.9 kmh E 2.3 mph3.7 kmh 29.95 in1014.2 mb - 0.00 in0.0 mm 0.01 in0.3 mm
07:50 AM 68.8°F20.4°C 68.5°F20.3°C 99% Calm Calm 1.2 mph1.9 kmh 29.95 in1014.2 mb - 0.00 in0.0 mm 0.01 in0.3 mm
07:40 AM 69.0°F20.6°C 68.7°F20.4°C 99% 1.2 mph NW1.9 kmh NW 2.3 mph3.7 kmh 29.94 in1013.9 mb - 0.00 in0.0 mm 0.01 in0.3 mm
07:30 AM 69.2°F20.7°C 68.9°F20.5°C 99% 1.2 mph N1.9 kmh N 2.3 mph3.7 kmh 29.94 in1013.9 mb - 0.00 in0.0 mm 0.01 in0.3 mm
07:20 AM 69.5°F20.8°C 69.2°F20.7°C 99% 1.2 mph NW1.9 kmh NW 2.3 mph3.7 kmh 29.93 in1013.5 mb - 0.00 in0.0 mm 0.01 in0.3 mm
07:10 AM 69.4°F20.8°C 69.1°F20.6°C 99% 2.3 mph WNW3.7 kmh WNW 2.3 mph3.7 kmh 29.93 in1013.5 mb - 0.00 in0.0 mm 0.01 in0.3 mm
07:00 AM 70.4°F21.3°C 70.1°F21.2°C 99% 1.2 mph NW1.9 kmh NW 2.3 mph3.7 kmh 29.93 in1013.5 mb - 0.00 in0.0 mm 0.01 in0.3 mm
06:50 AM 70.9°F21.6°C 70.6°F21.4°C 99% 1.2 mph NE1.9 kmh NE 1.2 mph1.9 kmh 29.93 in1013.5 mb - 0.00 in0.0 mm 0.01 in0.3 mm
06:40 AM 71.3°F21.8°C 71.0°F21.7°C 99% 1.2 mph NW1.9 kmh NW 8.1 mph13.0 kmh 29.92 in1013.2 mb - 0.01 in0.3 mm 0.01 in0.3 mm
06:30 AM 71.2°F21.8°C 70.9°F21.6°C 99% Calm Calm -- 29.92 in1013.2 mb - 0.01 in0.3 mm 0.01 in0.3 mm
06:20 AM 71.0°F21.7°C 70.7°F21.5°C 99% Calm Calm -- 29.91 in1012.9 mb - 0.01 in0.3 mm 0.01 in0.3 mm
06:10 AM 70.8°F21.6°C 70.6°F21.4°C 99% Calm Calm -- 29.91 in1012.9 mb - 0.01 in0.3 mm 0.01 in0.3 mm
06:00 AM 70.8°F21.6°C 70.5°F21.4°C 99% Calm Calm -- 29.91 in1012.9 mb - 0.01 in0.3 mm 0.01 in0.3 mm
05:50 AM 70.5°F21.4°C 70.3°F21.3°C 99% Calm Calm -- 29.91 in1012.9 mb - 0.01 in0.3 mm 0.01 in0.3 mm
05:40 AM 70.5°F21.4°C 70.2°F21.2°C 99% Calm Calm -- 29.90 in1012.5 mb - 0.00 in0.0 mm 0.00 in0.0 mm
05:30 AM 70.5°F21.4°C 70.2°F21.2°C 99% Calm Calm -- 29.90 in1012.5 mb - 0.00 in0.0 mm 0.00 in0.0 mm
05:20 AM 70.6°F21.4°C 70.3°F21.3°C 99% Calm Calm -- 29.90 in1012.5 mb - 0.00 in0.0 mm 0.00 in0.0 mm
05:10 AM 70.6°F21.4°C 70.4°F21.3°C 99% Calm Calm -- 29.91 in1012.9 mb - 0.00 in0.0 mm 0.00 in0.0 mm
05:00 AM 70.4°F21.3°C 70.1°F21.2°C 99% Calm Calm -- 29.90 in1012.5 mb - 0.00 in0.0 mm 0.00 in0.0 mm
04:50 AM 70.3°F21.3°C 70.0°F21.1°C 99% Calm Calm -- 29.90 in1012.5 mb - 0.00 in0.0 mm 0.00 in0.0 mm
04:40 AM 70.3°F21.3°C 70.0°F21.1°C 99% Calm Calm -- 29.89 in1012.2 mb - 0.00 in0.0 mm 0.00 in0.0 mm
04:30 AM 70.3°F21.3°C 70.0°F21.1°C 99% Calm Calm -- 29.89 in1012.2 mb - 0.00 in0.0 mm 0.00 in0.0 mm
04:20 AM 70.3°F21.3°C 70.1°F21.2°C 99% Calm Calm -- 29.89 in1012.2 mb - 0.00 in0.0 mm 0.00 in0.0 mm
04:10 AM 70.5°F21.4°C 70.2°F21.2°C 99% Calm Calm -- 29.89 in1012.2 mb - 0.00 in0.0 mm 0.00 in0.0 mm
04:00 AM 70.4°F21.3°C 70.1°F21.2°C 99% Calm Calm -- 29.89 in1012.2 mb - 0.00 in0.0 mm 0.00 in0.0 mm
03:50 AM 70.2°F21.2°C 69.9°F21.1°C 99% Calm Calm -- 29.89 in1012.2 mb - 0.00 in0.0 mm 0.00 in0.0 mm
03:40 AM 70.3°F21.3°C 70.0°F21.1°C 99% Calm Calm -- 29.88 in1011.9 mb - 0.00 in0.0 mm 0.00 in0.0 mm
03:30 AM 70.4°F21.3°C 70.1°F21.2°C 99% Calm Calm -- 29.87 in1011.5 mb - 0.00 in0.0 mm 0.00 in0.0 mm
03:20 AM 70.6°F21.4°C 70.3°F21.3°C 99% Calm Calm -- 29.86 in1011.2 mb - 0.00 in0.0 mm 0.00 in0.0 mm
03:10 AM 70.2°F21.2°C 69.9°F21.1°C 99% Calm Calm -- 29.85 in1010.8 mb - 0.00 in0.0 mm 0.00 in0.0 mm
03:00 AM 70.6°F21.4°C 70.3°F21.3°C 99% Calm Calm -- 29.85 in1010.8 mb - 0.00 in0.0 mm 0.00 in0.0 mm
02:50 AM 70.8°F21.6°C 70.5°F21.4°C 99% Calm Calm -- 29.85 in1010.8 mb - 0.00 in0.0 mm 0.00 in0.0 mm
02:40 AM 70.8°F21.6°C 70.5°F21.4°C 99% Calm Calm -- 29.85 in1010.8 mb - 0.00 in0.0 mm 0.00 in0.0 mm
02:30 AM 70.5°F21.4°C 70.2°F21.2°C 99% Calm Calm -- 29.85 in1010.8 mb - 0.00 in0.0 mm 0.00 in0.0 mm
02:20 AM 70.7°F21.5°C 70.4°F21.3°C 99% Calm Calm -- 29.85 in1010.8 mb - 0.00 in0.0 mm 0.00 in0.0 mm
02:10 AM 70.9°F21.6°C 70.6°F21.4°C 99% Calm Calm -- 29.85 in1010.8 mb - 0.00 in0.0 mm 0.00 in0.0 mm
02:00 AM 71.3°F21.8°C 71.0°F21.7°C 99% Calm Calm -- 29.86 in1011.2 mb - 0.00 in0.0 mm 0.00 in0.0 mm
01:50 AM 71.6°F22.0°C 71.3°F21.8°C 99% Calm Calm -- 29.87 in1011.5 mb - 0.00 in0.0 mm 0.00 in0.0 mm
01:40 AM 71.7°F22.1°C 71.4°F21.9°C 99% Calm Calm -- 29.88 in1011.9 mb - 0.00 in0.0 mm 0.00 in0.0 mm
01:30 AM 71.6°F22.0°C 71.3°F21.8°C 99% Calm Calm -- 29.88 in1011.9 mb - 0.00 in0.0 mm 0.00 in0.0 mm
01:20 AM 71.7°F22.1°C 71.4°F21.9°C 99% Calm Calm -- 29.89 in1012.2 mb - 0.00 in0.0 mm 0.00 in0.0 mm
01:10 AM 71.8°F22.1°C 71.5°F21.9°C 99% Calm Calm -- 29.89 in1012.2 mb - 0.00 in0.0 mm 0.00 in0.0 mm
01:00 AM 71.9°F22.2°C 71.6°F22.0°C 99% Calm Calm -- 29.91 in1012.9 mb - 0.00 in0.0 mm 0.00 in0.0 mm
12:50 AM 72.0°F22.2°C 71.7°F22.1°C 99% Calm Calm -- 29.91 in1012.9 mb - 0.00 in0.0 mm 0.00 in0.0 mm
12:40 AM 72.0°F22.2°C 71.7°F22.1°C 99% Calm Calm -- 29.91 in1012.9 mb - 0.00 in0.0 mm 0.00 in0.0 mm
12:30 AM 72.1°F22.3°C 71.8°F22.1°C 99% Calm Calm -- 29.91 in1012.9 mb - 0.00 in0.0 mm 0.00 in0.0 mm
12:20 AM 72.2°F22.3°C 71.9°F22.2°C 99% 1.2 mph NNW1.9 kmh NNW -- 29.91 in1012.9 mb - 0.00 in0.0 mm 0.00 in0.0 mm
12:10 AM 72.2°F22.3°C 71.9°F22.2°C 99% 2.3 mph NNW3.7 kmh NNW 3.5 mph5.6 kmh 29.92 in1013.2 mb - 0.00 in0.0 mm 0.00 in0.0 mm
12:00 AM 72.2°F22.3°C 71.9°F22.2°C 99% Calm Calm 1.2 mph1.9 kmh 29.93 in1013.5 mb - 0.00 in0.0 mm 0.00 in0.0 mm